Etusivu
METAR-TAF:

METAR-TAF

Lentoasemat :

Alderney,

Leveyspiiri: 49-43N, Pituuspiiri: 002-12W, korkeus merenpinnasta: 71 m

Tämänhetkinen sää

Tämä raportti tehtiin 8 tuntia ja 52 minuuttia sitten, kello 17.20 UTC
Tuuli 6 kn pohjoisen/luoteesta
Lämpötila 18°C
Kosteus 68%
Ilmanpaine 1026 hPa
Näkyvyys 10 km tai enemmän
ei pilviä alle 1500 m:ssä eikä cumulonimbus-pilviä

METAR: EGJA 221720Z 33006KT CAVOK 18/12 Q1026

Aika: 03:12 (02:12 UTC)

Sääennuste

Tämä raportti tehtiin 12 tuntia ja 17 minuuttia sitten, kello 13.55 UTC
Ennuste voimassa 22. päivästä klo 15 UTC - 23. päivään klo 00 UTC
Tuuli 6 kn lännestä/luoteesta
Näkyvyys 10 km tai enemmän
Muutamia pilviä 2500 ft:n korkeudessa

TAF: EGJA 221355Z 2215/2300 30006KT 9999 FEW025

Säähavainnot ja -ennusteet yli 4000 lentoasemalta (METAR- ja TAF-raportit).

Käytössä olevat sääasemat on merkitty karttaan keltaisilla ja punaisilla pisteillä.

Aseta hiiri pisteen päälle nähdäksesi sääaseman nimen.

Klikkaa sitten nähdäksesi säähavainnot ja -ennusteet.

Kartan vaihtaminen: klikkaa mustalla rastilla varustettuja vihreitä pisteitä, niin voit zoomata sisään; viivalla varustettua vihreää pistettä, niin voit zoomata ulos tai vihreitä nuolia, niin pääset viereisille kartoille.


METAR-TAF: